Time;durP1;ratioP1;P1;durP2;ratioP2;P2;SDS_P1;SDS_P2;PMS_P1;PMS_P2;Temp;Humidity;BMP_temperature;BMP_pressure;BME280_temperature;BME280_humidity;BME280_pressure;Samples;Min_cycle;Max_cycle;Signal;HPM_P1;HPM_P2
2022/11/13 00:01:57;;;;;;;;;;;3.40;99.90;;;;;;5012301;28;19917;-51
2022/11/13 00:04:23;;;;;;;;;;;3.40;99.90;;;;;;5015872;28;19999;-50
2022/11/13 00:06:48;;;;;;;;;;;3.40;99.90;;;;;;5009982;28;19932;-49
2022/11/13 00:09:14;;;;;;;;;;;3.40;99.90;;;;;;5010724;28;19914;-49
2022/11/13 00:11:39;;;;;;;;;;;3.30;99.90;;;;;;5010630;28;20009;-48
2022/11/13 00:14:05;;;;;;;;;;;3.30;99.90;;;;;;5010926;28;19992;-51
2022/11/13 00:16:30;;;;;;;;;;;3.30;99.90;;;;;;5011261;28;19967;-51
2022/11/13 00:18:55;;;;;;;;;;;3.30;99.90;;;;;;5010520;28;19909;-47
2022/11/13 00:21:22;;;;;;;;;;;3.30;99.90;;;;;;5023787;28;19917;-48
2022/11/13 00:23:48;;;;;;;;;;;3.30;99.90;;;;;;5022318;28;20268;-48
2022/11/13 00:26:15;;;;;;;;;;;3.30;99.90;;;;;;5012659;28;19956;-47
2022/11/13 00:28:41;;;;;;;;;;;3.30;99.90;;;;;;5010671;28;19913;-53
2022/11/13 00:31:07;;;;;;;;;;;3.30;99.90;;;;;;5017173;28;19944;-50
2022/11/13 00:33:33;;;;;;;;;;;3.20;99.90;;;;;;5020226;28;19925;-49
2022/11/13 00:36:03;;;;;;;;;;;3.30;99.90;;;;;;5014129;28;19914;-50
2022/11/13 00:38:28;;;;;;;;;;;3.20;99.90;;;;;;5010254;28;19932;-49
2022/11/13 00:40:53;;;;;;;;;;;3.20;99.90;;;;;;5014395;28;19972;-48
2022/11/13 00:43:19;;;;;;;;;;;3.20;99.90;;;;;;5011767;28;19910;-51
2022/11/13 00:45:44;;;;;;;;;;;3.20;99.90;;;;;;5010276;28;20549;-48
2022/11/13 00:48:10;;;;;;;;;;;3.10;99.90;;;;;;5010576;28;19924;-48
2022/11/13 00:50:35;;;;;;;;;;;3.20;99.90;;;;;;5010460;28;19918;-50
2022/11/13 00:53:01;;;;;;;;;;;3.10;99.90;;;;;;5010913;28;19932;-49
2022/11/13 00:55:27;;;;;;;;;;;3.20;99.90;;;;;;5010136;28;19910;-47
2022/11/13 00:57:52;;;;;;;;;;;3.20;99.90;;;;;;5019998;28;20032;-45
2022/11/13 01:00:18;;;;;;;;;;;3.20;99.90;;;;;;5009453;28;20498;-47
2022/11/13 01:02:43;;;;;;;;;;;3.20;99.90;;;;;;5010615;28;19967;-48
2022/11/13 01:05:09;;;;;;;;;;;3.20;99.90;;;;;;5010369;28;19921;-49
2022/11/13 01:07:35;;;;;;;;;;;3.20;99.90;;;;;;5011746;28;20340;-48
2022/11/13 01:10:01;;;;;;;;;;;3.20;99.90;;;;;;5010645;28;19913;-46
2022/11/13 01:12:26;;;;;;;;;;;3.10;99.90;;;;;;5009957;28;19925;-48
2022/11/13 01:14:52;;;;;;;;;;;3.10;99.90;;;;;;5011007;28;20426;-49
2022/11/13 01:17:17;;;;;;;;;;;3.00;99.90;;;;;;5009697;28;20024;-48
2022/11/13 01:19:43;;;;;;;;;;;3.00;99.90;;;;;;5010297;28;19909;-47
2022/11/13 01:22:08;;;;;;;;;;;3.00;99.90;;;;;;5009664;28;20218;-46
2022/11/13 01:24:34;;;;;;;;;;;3.00;99.90;;;;;;5010456;28;19910;-46
2022/11/13 01:26:59;;;;;;;;;;;3.00;99.90;;;;;;5010455;28;19932;-48
2022/11/13 01:29:25;;;;;;;;;;;2.90;99.90;;;;;;5010248;28;19956;-47
2022/11/13 01:31:50;;;;;;;;;;;2.90;99.90;;;;;;5019835;28;19971;-49
2022/11/13 01:34:16;;;;;;;;;;;2.90;99.90;;;;;;5023795;28;20275;-48
2022/11/13 01:36:41;;;;;;;;;;;2.90;99.90;;;;;;5012286;28;19997;-49
2022/11/13 01:39:08;;;;;;;;;;;2.90;99.90;;;;;;5013319;28;19920;-48
2022/11/13 01:41:33;;;;;;;;;;;2.90;99.90;;;;;;5014662;28;20039;-48
2022/11/13 01:43:59;;;;;;;;;;;2.90;99.90;;;;;;5020255;28;20480;-50
2022/11/13 01:46:25;;;;;;;;;;;2.80;99.90;;;;;;5013291;28;19917;-51
2022/11/13 01:48:57;;;;;;;;;;;2.80;99.90;;;;;;5013172;28;19920;-48
2022/11/13 01:51:33;;;;;;;;;;;2.70;99.90;;;;;;5011781;28;19941;-48
2022/11/13 01:54:00;;;;;;;;;;;2.70;99.90;;;;;;5013242;28;20336;-50
2022/11/13 01:56:26;;;;;;;;;;;2.70;99.90;;;;;;5011646;28;19960;-47
2022/11/13 01:59:03;;;;;;;;;;;2.70;99.90;;;;;;5023531;28;20331;-46
2022/11/13 02:01:28;;;;;;;;;;;2.70;99.90;;;;;;5013070;28;20004;-50
2022/11/13 02:03:54;;;;;;;;;;;2.70;99.90;;;;;;5011411;28;20558;-46
2022/11/13 02:06:20;;;;;;;;;;;2.70;99.90;;;;;;5013049;28;20012;-50
2022/11/13 02:08:47;;;;;;;;;;;2.70;99.90;;;;;;5012916;28;19916;-50
2022/11/13 02:11:13;;;;;;;;;;;2.70;99.90;;;;;;5025547;28;19975;-50
2022/11/13 02:13:38;;;;;;;;;;;2.70;99.90;;;;;;5022422;28;19913;-49
2022/11/13 02:16:05;;;;;;;;;;;2.70;99.90;;;;;;5013692;28;19961;-53
2022/11/13 02:18:31;;;;;;;;;;;2.70;99.90;;;;;;5013555;28;20032;-50
2022/11/13 02:21:16;;;;;;;;;;;2.70;99.90;;;;;;5013433;28;19910;-51
2022/11/13 02:23:59;;;;;;;;;;;2.80;99.90;;;;;;5012379;28;19928;-46
2022/11/13 02:26:25;;;;;;;;;;;2.80;99.90;;;;;;5012856;28;19919;-52
2022/11/13 02:28:51;;;;;;;;;;;2.80;99.90;;;;;;5019212;28;19920;-47
2022/11/13 02:31:16;;;;;;;;;;;2.80;99.90;;;;;;5019009;28;20380;-48
2022/11/13 02:33:41;;;;;;;;;;;2.80;99.90;;;;;;5012400;28;20380;-49
2022/11/13 02:36:08;;;;;;;;;;;2.80;99.90;;;;;;5012142;28;19956;-47
2022/11/13 02:38:34;;;;;;;;;;;2.80;99.90;;;;;;5012290;28;19910;-47
2022/11/13 02:41:00;;;;;;;;;;;2.80;99.90;;;;;;5013150;28;19963;-47
2022/11/13 02:43:26;;;;;;;;;;;2.80;99.90;;;;;;5012682;28;20367;-47
2022/11/13 02:45:52;;;;;;;;;;;2.80;99.90;;;;;;5012186;28;19925;-46
2022/11/13 02:48:17;;;;;;;;;;;2.80;99.90;;;;;;5011766;28;19952;-50
2022/11/13 02:50:43;;;;;;;;;;;2.80;99.90;;;;;;5013022;28;19961;-46
2022/11/13 02:53:08;;;;;;;;;;;2.80;99.90;;;;;;5011917;28;19913;-48
2022/11/13 02:55:34;;;;;;;;;;;2.80;99.90;;;;;;5016203;28;19946;-45
2022/11/13 02:57:59;;;;;;;;;;;2.80;99.90;;;;;;5028835;28;19909;-47
2022/11/13 03:00:25;;;;;;;;;;;2.80;99.90;;;;;;5011991;28;19914;-46
2022/11/13 03:02:50;;;;;;;;;;;2.80;99.90;;;;;;5011744;28;19913;-48
2022/11/13 03:05:16;;;;;;;;;;;2.80;99.90;;;;;;5011637;28;20368;-50
2022/11/13 03:07:41;;;;;;;;;;;2.80;99.90;;;;;;5011548;28;19914;-48
2022/11/13 03:10:07;;;;;;;;;;;2.70;99.90;;;;;;5015624;28;19916;-49
2022/11/13 03:12:33;;;;;;;;;;;2.70;99.90;;;;;;5031351;28;20667;-46
2022/11/13 03:14:58;;;;;;;;;;;2.70;99.90;;;;;;5013819;28;19914;-47
2022/11/13 03:17:24;;;;;;;;;;;2.60;99.90;;;;;;5011647;28;20002;-48
2022/11/13 03:19:49;;;;;;;;;;;2.60;99.90;;;;;;5011350;28;20280;-50
2022/11/13 03:22:15;;;;;;;;;;;2.60;99.90;;;;;;5012327;28;19921;-50
2022/11/13 03:24:40;;;;;;;;;;;2.60;99.90;;;;;;5012477;28;19913;-52
2022/11/13 03:27:06;;;;;;;;;;;2.60;99.90;;;;;;5011474;28;19920;-51
2022/11/13 03:29:31;;;;;;;;;;;2.50;99.90;;;;;;5018490;28;19919;-49
2022/11/13 03:31:57;;;;;;;;;;;2.50;99.90;;;;;;5013058;28;20265;-49
2022/11/13 03:34:22;;;;;;;;;;;2.40;99.90;;;;;;5011095;28;19914;-48
2022/11/13 03:36:48;;;;;;;;;;;2.30;99.90;;;;;;5011022;28;19959;-50
2022/11/13 03:39:13;;;;;;;;;;;2.30;99.90;;;;;;5011305;28;19909;-49
2022/11/13 03:41:38;;;;;;;;;;;2.30;99.90;;;;;;5011060;28;19910;-48
2022/11/13 03:44:04;;;;;;;;;;;2.30;99.90;;;;;;5011908;28;19910;-49
2022/11/13 03:46:30;;;;;;;;;;;2.20;99.90;;;;;;5010962;28;19913;-51
2022/11/13 03:48:55;;;;;;;;;;;2.20;99.90;;;;;;5010816;28;19920;-53
2022/11/13 03:51:21;;;;;;;;;;;2.20;99.90;;;;;;5012828;28;19924;-47
2022/11/13 03:53:46;;;;;;;;;;;2.20;99.90;;;;;;5011373;28;19913;-53
2022/11/13 03:56:12;;;;;;;;;;;2.20;99.90;;;;;;5011190;28;19910;-50
2022/11/13 03:58:37;;;;;;;;;;;2.20;99.90;;;;;;5020931;28;20359;-48
2022/11/13 04:01:03;;;;;;;;;;;2.10;99.90;;;;;;5010481;28;19921;-47
2022/11/13 04:03:28;;;;;;;;;;;2.10;99.90;;;;;;5022928;28;19948;-49
2022/11/13 04:05:54;;;;;;;;;;;2.00;99.90;;;;;;5011598;28;20322;-48
2022/11/13 04:08:19;;;;;;;;;;;2.00;99.90;;;;;;5021780;28;19914;-47
2022/11/13 04:10:45;;;;;;;;;;;1.90;99.90;;;;;;5010384;28;20028;-50
2022/11/13 04:13:11;;;;;;;;;;;1.80;99.90;;;;;;5010495;28;20356;-48
2022/11/13 04:15:36;;;;;;;;;;;1.80;99.90;;;;;;5010838;28;20011;-49
2022/11/13 04:18:02;;;;;;;;;;;1.70;99.90;;;;;;5010639;28;19917;-48
2022/11/13 04:20:28;;;;;;;;;;;1.70;99.90;;;;;;5011379;28;19914;-53
2022/11/13 04:22:57;;;;;;;;;;;1.70;99.90;;;;;;5011260;28;19916;-49
2022/11/13 04:25:23;;;;;;;;;;;1.60;99.90;;;;;;5010417;28;19913;-53
2022/11/13 04:27:49;;;;;;;;;;;1.60;99.90;;;;;;5011203;28;19914;-49
2022/11/13 04:30:14;;;;;;;;;;;1.60;99.90;;;;;;5014483;28;20309;-47
2022/11/13 04:32:40;;;;;;;;;;;1.60;99.90;;;;;;5010299;28;19941;-51
2022/11/13 04:35:06;;;;;;;;;;;1.60;99.90;;;;;;5010765;28;19909;-51
2022/11/13 04:37:31;;;;;;;;;;;1.60;99.90;;;;;;5011338;28;20461;-50
2022/11/13 04:39:56;;;;;;;;;;;1.70;99.90;;;;;;5011137;28;19956;-47
2022/11/13 04:45:07;;;;;;;;;;;1.70;99.90;;;;;;5025568;28;20256;-51
2022/11/13 04:47:32;;;;;;;;;;;1.80;99.90;;;;;;5010322;28;19913;-50
2022/11/13 04:49:58;;;;;;;;;;;1.80;99.90;;;;;;5009982;28;19917;-50
2022/11/13 04:52:23;;;;;;;;;;;1.90;99.90;;;;;;5009980;28;19983;-47
2022/11/13 04:54:49;;;;;;;;;;;1.90;99.90;;;;;;5010751;28;20356;-46
2022/11/13 04:57:14;;;;;;;;;;;1.90;99.90;;;;;;5016167;28;19913;-49
2022/11/13 04:59:40;;;;;;;;;;;2.00;99.90;;;;;;5014549;28;19910;-50
2022/11/13 05:02:05;;;;;;;;;;;2.00;99.90;;;;;;5009174;28;19960;-51
2022/11/13 05:04:31;;;;;;;;;;;2.00;99.90;;;;;;5010858;28;19913;-48
2022/11/13 05:06:56;;;;;;;;;;;2.00;99.90;;;;;;5010052;28;19975;-51
2022/11/13 05:09:22;;;;;;;;;;;2.10;99.90;;;;;;5010062;28;19914;-52
2022/11/13 05:11:47;;;;;;;;;;;2.10;99.90;;;;;;5014595;28;19925;-50
2022/11/13 05:14:13;;;;;;;;;;;2.10;99.90;;;;;;5013825;28;20276;-51
2022/11/13 05:16:39;;;;;;;;;;;2.20;99.90;;;;;;5013987;28;19940;-49
2022/11/13 05:19:07;;;;;;;;;;;2.20;99.90;;;;;;5025214;28;20669;-49
2022/11/13 05:21:34;;;;;;;;;;;2.20;99.90;;;;;;5033686;28;19909;-49
2022/11/13 05:23:59;;;;;;;;;;;2.30;99.90;;;;;;5033539;28;19909;-51
2022/11/13 05:26:28;;;;;;;;;;;2.30;99.90;;;;;;5033568;28;19944;-49
2022/11/13 05:28:57;;;;;;;;;;;2.40;99.90;;;;;;5031317;28;19913;-49
2022/11/13 05:31:23;;;;;;;;;;;2.40;99.90;;;;;;5013835;28;19929;-50
2022/11/13 05:33:48;;;;;;;;;;;2.40;99.90;;;;;;5012219;28;19910;-48
2022/11/13 05:36:14;;;;;;;;;;;2.40;99.90;;;;;;5013500;28;19909;-51
2022/11/13 05:38:40;;;;;;;;;;;2.40;99.90;;;;;;5013598;28;19921;-49
2022/11/13 05:41:07;;;;;;;;;;;2.50;99.90;;;;;;5013386;28;19914;-46
2022/11/13 05:43:33;;;;;;;;;;;2.50;99.90;;;;;;5012246;28;19956;-47
2022/11/13 05:46:06;;;;;;;;;;;2.50;99.90;;;;;;5014163;28;20521;-51
2022/11/13 05:48:32;;;;;;;;;;;2.50;99.90;;;;;;5031470;28;20296;-47
2022/11/13 05:51:05;;;;;;;;;;;2.40;99.90;;;;;;5033001;28;19913;-49
2022/11/13 05:53:32;;;;;;;;;;;2.40;99.90;;;;;;5032903;28;19909;-50
2022/11/13 05:55:58;;;;;;;;;;;2.50;99.90;;;;;;5031316;28;19920;-49
2022/11/13 05:58:24;;;;;;;;;;;2.50;99.90;;;;;;5032967;28;19915;-51
2022/11/13 06:00:49;;;;;;;;;;;2.50;99.90;;;;;;5031605;28;20576;-49
2022/11/13 06:03:15;;;;;;;;;;;2.50;99.90;;;;;;5033270;28;19913;-45
2022/11/13 06:05:40;;;;;;;;;;;2.50;99.90;;;;;;5032713;28;19935;-49
2022/11/13 06:08:06;;;;;;;;;;;2.50;99.90;;;;;;5032821;28;19913;-49
2022/11/13 06:10:31;;;;;;;;;;;2.60;99.90;;;;;;5024861;28;20280;-54
2022/11/13 06:12:57;;;;;;;;;;;2.60;99.90;;;;;;5025487;28;19975;-47
2022/11/13 06:15:22;;;;;;;;;;;2.60;99.90;;;;;;5031296;28;19909;-51
2022/11/13 06:17:48;;;;;;;;;;;2.60;99.90;;;;;;5024179;28;19924;-48
2022/11/13 06:20:13;;;;;;;;;;;2.60;99.90;;;;;;5014367;28;20059;-47
2022/11/13 06:22:39;;;;;;;;;;;2.70;99.90;;;;;;5031414;28;19909;-51
2022/11/13 06:25:05;;;;;;;;;;;2.70;99.90;;;;;;5032257;28;19921;-46
2022/11/13 06:27:30;;;;;;;;;;;2.70;99.90;;;;;;5032611;28;19928;-48
2022/11/13 06:29:56;;;;;;;;;;;2.70;99.90;;;;;;5021500;28;19914;-51
2022/11/13 06:32:21;;;;;;;;;;;2.70;99.90;;;;;;5012575;28;19957;-47
2022/11/13 06:34:47;;;;;;;;;;;2.70;99.90;;;;;;5012566;28;19909;-49
2022/11/13 06:37:12;;;;;;;;;;;2.80;99.90;;;;;;5012834;28;20681;-48
2022/11/13 06:39:38;;;;;;;;;;;2.80;99.90;;;;;;5012215;28;19913;-48
2022/11/13 06:42:03;;;;;;;;;;;2.80;99.90;;;;;;5012437;28;19910;-47
2022/11/13 06:44:29;;;;;;;;;;;2.80;99.90;;;;;;5012396;28;19913;-50
2022/11/13 06:46:54;;;;;;;;;;;2.80;99.90;;;;;;5011877;28;19925;-48
2022/11/13 06:49:20;;;;;;;;;;;2.90;99.90;;;;;;5025217;28;19917;-53
2022/11/13 06:51:45;;;;;;;;;;;2.90;99.90;;;;;;5031900;28;19952;-49
2022/11/13 06:54:11;;;;;;;;;;;2.90;99.90;;;;;;5031954;28;19913;-47
2022/11/13 06:56:42;;;;;;;;;;;3.00;99.90;;;;;;5031786;28;19908;-50
2022/11/13 06:59:08;;;;;;;;;;;3.00;99.90;;;;;;5031843;28;20554;-51
2022/11/13 07:01:33;;;;;;;;;;;3.00;99.90;;;;;;5031790;28;19909;-49
2022/11/13 07:03:59;;;;;;;;;;;3.00;99.90;;;;;;5031677;28;19919;-47
2022/11/13 07:06:24;;;;;;;;;;;3.10;99.90;;;;;;5030242;28;19921;-49
2022/11/13 07:08:50;;;;;;;;;;;3.10;99.90;;;;;;5031620;28;19913;-49
2022/11/13 07:11:17;;;;;;;;;;;3.20;99.90;;;;;;5030969;28;19925;-50
2022/11/13 07:13:43;;;;;;;;;;;3.20;99.90;;;;;;5027147;28;19916;-47
2022/11/13 07:16:09;;;;;;;;;;;3.20;99.90;;;;;;5015286;28;19917;-51
2022/11/13 07:18:35;;;;;;;;;;;3.20;99.90;;;;;;5018995;28;20324;-44
2022/11/13 07:21:05;;;;;;;;;;;3.20;99.90;;;;;;5020695;28;20004;-52
2022/11/13 07:23:30;;;;;;;;;;;3.20;99.90;;;;;;5024783;28;19920;-50
2022/11/13 07:25:56;;;;;;;;;;;3.30;99.90;;;;;;5011305;28;19921;-49
2022/11/13 07:28:21;;;;;;;;;;;3.30;99.90;;;;;;5025193;28;19914;-46
2022/11/13 07:30:47;;;;;;;;;;;3.30;99.90;;;;;;5018923;28;20023;-50
2022/11/13 07:33:12;;;;;;;;;;;3.40;99.90;;;;;;5012672;28;19918;-47
2022/11/13 07:35:38;;;;;;;;;;;3.40;99.90;;;;;;5015909;28;19913;-49
2022/11/13 07:38:03;;;;;;;;;;;3.50;99.90;;;;;;5024352;28;19917;-48
2022/11/13 07:40:29;;;;;;;;;;;3.50;99.90;;;;;;5014617;28;19909;-50
2022/11/13 07:42:58;;;;;;;;;;;3.60;99.90;;;;;;5011708;28;19921;-49
2022/11/13 07:45:24;;;;;;;;;;;3.70;99.90;;;;;;5011181;28;19963;-51
2022/11/13 07:47:50;;;;;;;;;;;4.00;99.90;;;;;;5011097;28;19921;-49
2022/11/13 07:50:15;;;;;;;;;;;4.20;99.90;;;;;;5010190;28;19925;-49
2022/11/13 07:52:41;;;;;;;;;;;4.60;99.90;;;;;;5011001;28;19913;-50
2022/11/13 07:55:07;;;;;;;;;;;4.90;99.90;;;;;;5010854;28;19968;-49
2022/11/13 07:57:32;;;;;;;;;;;5.40;99.90;;;;;;5019338;28;19917;-50
2022/11/13 07:59:58;;;;;;;;;;;5.90;99.90;;;;;;5015671;28;19917;-51
2022/11/13 08:02:23;;;;;;;;;;;6.40;99.90;;;;;;5018757;28;19955;-52
2022/11/13 08:04:49;;;;;;;;;;;6.60;99.90;;;;;;5027429;28;19920;-49
2022/11/13 08:07:14;;;;;;;;;;;6.80;99.90;;;;;;5030292;28;20253;-47
2022/11/13 08:09:40;;;;;;;;;;;7.20;99.90;;;;;;5030397;28;19913;-47
2022/11/13 08:12:05;;;;;;;;;;;7.60;99.90;;;;;;5020610;28;19921;-48
2022/11/13 08:14:31;;;;;;;;;;;8.00;99.90;;;;;;5010957;28;20272;-52
2022/11/13 08:16:56;;;;;;;;;;;8.30;99.90;;;;;;5010601;28;19983;-49
2022/11/13 08:19:22;;;;;;;;;;;8.70;99.90;;;;;;5011323;28;19913;-51
2022/11/13 08:21:47;;;;;;;;;;;8.50;99.90;;;;;;5009789;28;20032;-48
2022/11/13 08:24:13;;;;;;;;;;;8.90;99.90;;;;;;5010391;28;19910;-52
2022/11/13 08:26:38;;;;;;;;;;;9.00;99.90;;;;;;5010174;28;19918;-47
2022/11/13 08:29:04;;;;;;;;;;;9.50;99.90;;;;;;5014359;28;20424;-46
2022/11/13 08:31:30;;;;;;;;;;;9.60;99.90;;;;;;5016489;28;19912;-48
2022/11/13 08:33:56;;;;;;;;;;;10.10;99.90;;;;;;5019654;28;19971;-49
2022/11/13 08:36:21;;;;;;;;;;;9.90;99.90;;;;;;5010386;28;20327;-50
2022/11/13 08:38:47;;;;;;;;;;;10.20;99.90;;;;;;5011098;28;19945;-53
2022/11/13 08:41:12;;;;;;;;;;;10.50;99.90;;;;;;5010399;28;19913;-52
2022/11/13 08:43:38;;;;;;;;;;;10.60;99.90;;;;;;5017188;28;20364;-49
2022/11/13 08:46:04;;;;;;;;;;;11.00;99.80;;;;;;5009048;28;19939;-53
2022/11/13 08:48:29;;;;;;;;;;;11.20;99.50;;;;;;5010603;28;19909;-52
2022/11/13 08:50:55;;;;;;;;;;;11.60;98.50;;;;;;5010112;28;19953;-56
2022/11/13 08:53:21;;;;;;;;;;;12.30;97.30;;;;;;5010180;28;19913;-50
2022/11/13 08:55:47;;;;;;;;;;;12.70;94.70;;;;;;5010043;28;19921;-58
2022/11/13 08:58:12;;;;;;;;;;;12.90;92.80;;;;;;5012803;28;19910;-47
2022/11/13 09:00:38;;;;;;;;;;;12.80;91.50;;;;;;5010871;28;20011;-50
2022/11/13 09:03:03;;;;;;;;;;;13.30;91.80;;;;;;5010680;28;19910;-50
2022/11/13 09:05:29;;;;;;;;;;;13.40;90.50;;;;;;5009656;28;20316;-50
2022/11/13 09:07:58;;;;;;;;;;;13.40;88.50;;;;;;5020350;28;19917;-48
2022/11/13 09:10:24;;;;;;;;;;;13.80;87.50;;;;;;5011255;28;19952;-48
2022/11/13 09:12:54;;;;;;;;;;;14.00;84.80;;;;;;5012858;28;20416;-51
2022/11/13 09:15:19;;;;;;;;;;;13.80;85.20;;;;;;5010848;28;19928;-47
2022/11/13 09:17:45;;;;;;;;;;;13.40;85.10;;;;;;5011365;28;20314;-47
2022/11/13 09:20:11;;;;;;;;;;;13.80;85.60;;;;;;5009867;28;19933;-49
2022/11/13 09:22:36;;;;;;;;;;;13.10;85.40;;;;;;5009711;28;19910;-46
2022/11/13 09:25:02;;;;;;;;;;;12.70;87.30;;;;;;5010016;28;19928;-54
2022/11/13 09:27:27;;;;;;;;;;;12.80;90.50;;;;;;5010208;28;20571;-50
2022/11/13 09:29:53;;;;;;;;;;;12.70;89.40;;;;;;5009395;28;19909;-48
2022/11/13 09:32:18;;;;;;;;;;;12.60;89.90;;;;;;5010229;28;19913;-49
2022/11/13 09:34:44;;;;;;;;;;;13.20;90.00;;;;;;5009548;28;19925;-48
2022/11/13 09:37:09;;;;;;;;;;;13.70;86.40;;;;;;5010376;28;19953;-50
2022/11/13 09:39:35;;;;;;;;;;;13.90;83.40;;;;;;5015850;28;19917;-49
2022/11/13 09:42:20;;;;;;;;;;;14.30;80.40;;;;;;5018409;28;19909;-49
2022/11/13 09:44:46;;;;;;;;;;;14.60;80.30;;;;;;5010132;28;19964;-48
2022/11/13 09:47:16;;;;;;;;;;;15.10;78.10;;;;;;5010822;28;19947;-47
2022/11/13 09:49:43;;;;;;;;;;;15.60;76.50;;;;;;5015039;28;19917;-46
2022/11/13 09:52:14;;;;;;;;;;;16.20;72.90;;;;;;5029472;28;19991;-52
2022/11/13 09:54:40;;;;;;;;;;;16.20;68.20;;;;;;5025913;28;19920;-48
2022/11/13 09:57:18;;;;;;;;;;;16.70;68.50;;;;;;5030989;28;19909;-57
2022/11/13 09:59:50;;;;;;;;;;;16.70;61.70;;;;;;5032846;28;19916;-48
2022/11/13 10:02:15;;;;;;;;;;;17.20;62.10;;;;;;5032771;28;19924;-50
2022/11/13 10:05:01;;;;;;;;;;;17.20;59.40;;;;;;5032874;28;19913;-50
2022/11/13 10:07:31;;;;;;;;;;;17.30;59.60;;;;;;5032662;28;19914;-51
2022/11/13 10:10:05;;;;;;;;;;;17.10;59.00;;;;;;5032864;28;19909;-48
2022/11/13 10:12:31;;;;;;;;;;;17.40;58.10;;;;;;5032255;28;19928;-48
2022/11/13 10:15:00;;;;;;;;;;;17.50;56.50;;;;;;5032221;28;19917;-51
2022/11/13 10:17:25;;;;;;;;;;;17.40;57.20;;;;;;5019592;28;19909;-51
2022/11/13 10:19:56;;;;;;;;;;;16.80;56.50;;;;;;5014738;28;19968;-47
2022/11/13 10:22:37;;;;;;;;;;;17.20;57.70;;;;;;5021967;28;19917;-49
2022/11/13 10:25:19;;;;;;;;;;;17.40;55.30;;;;;;5013530;28;19917;-47
2022/11/13 10:27:52;;;;;;;;;;;17.60;55.80;;;;;;5012500;28;19914;-47
2022/11/13 10:30:18;;;;;;;;;;;17.30;55.50;;;;;;5012618;28;19913;-48
2022/11/13 10:32:44;;;;;;;;;;;17.30;56.80;;;;;;5012394;28;20264;-51
2022/11/13 10:35:29;;;;;;;;;;;17.70;55.10;;;;;;5012394;28;20055;-49
2022/11/13 10:37:59;;;;;;;;;;;17.90;55.20;;;;;;5013095;28;19917;-47
2022/11/13 10:40:42;;;;;;;;;;;17.90;54.70;;;;;;5019528;28;19924;-49
2022/11/13 10:43:18;;;;;;;;;;;17.90;54.50;;;;;;5018789;28;20610;-54
2022/11/13 10:46:00;;;;;;;;;;;17.70;54.20;;;;;;5012311;28;20028;-49
2022/11/13 10:48:26;;;;;;;;;;;17.80;55.00;;;;;;5012149;28;19914;-53
2022/11/13 10:50:52;;;;;;;;;;;17.90;54.60;;;;;;5012302;28;19983;-53
2022/11/13 10:53:18;;;;;;;;;;;17.80;53.30;;;;;;5012249;28;19920;-48
2022/11/13 10:55:44;;;;;;;;;;;17.90;53.70;;;;;;5012119;28;19910;-49
2022/11/13 10:58:14;;;;;;;;;;;17.80;54.10;;;;;;5025563;28;19920;-50
2022/11/13 11:00:43;;;;;;;;;;;18.10;53.70;;;;;;5032133;28;19909;-52
2022/11/13 11:03:14;;;;;;;;;;;18.10;53.40;;;;;;5031750;28;20007;-49
2022/11/13 11:05:49;;;;;;;;;;;17.60;54.20;;;;;;5032034;28;20589;-52
2022/11/13 11:08:15;;;;;;;;;;;17.60;55.10;;;;;;5030860;28;19959;-52
2022/11/13 11:12:14;;;;;;;;;;;17.70;54.60;;;;;;5031452;28;19909;-49
2022/11/13 11:13:26;;;;;;;;;;;17.70;54.40;;;;;;5030344;28;19960;-47
2022/11/13 11:16:00;;;;;;;;;;;17.00;56.50;;;;;;5026574;28;19960;-50
2022/11/13 11:18:33;;;;;;;;;;;17.10;55.30;;;;;;5019146;28;19910;-45
2022/11/13 11:21:00;;;;;;;;;;;17.50;56.10;;;;;;5024824;28;19913;-48
2022/11/13 11:23:28;;;;;;;;;;;17.50;55.40;;;;;;5012572;28;19917;-55
2022/11/13 11:26:14;;;;;;;;;;;17.30;55.50;;;;;;5011381;28;19980;-52
2022/11/13 11:28:58;;;;;;;;;;;17.00;56.70;;;;;;5012188;28;20341;-48
2022/11/13 11:31:36;;;;;;;;;;;17.30;56.30;;;;;;5012033;28;20165;-50
2022/11/13 11:34:15;;;;;;;;;;;17.40;56.20;;;;;;5012198;28;19917;-50
2022/11/13 11:36:42;;;;;;;;;;;17.30;54.90;;;;;;5012223;28;19919;-54
2022/11/13 11:39:17;;;;;;;;;;;17.30;56.90;;;;;;5012301;28;19949;-51
2022/11/13 11:41:51;;;;;;;;;;;17.60;56.00;;;;;;5014479;28;20597;-51
2022/11/13 11:44:21;;;;;;;;;;;17.50;55.80;;;;;;5016498;28;20424;-48
2022/11/13 11:46:46;;;;;;;;;;;17.50;55.10;;;;;;5011397;28;19913;-49
2022/11/13 11:49:12;;;;;;;;;;;17.30;55.10;;;;;;5011064;28;19921;-49
2022/11/13 11:51:52;;;;;;;;;;;17.00;56.70;;;;;;5011058;28;19925;-50
2022/11/13 11:54:17;;;;;;;;;;;17.10;56.00;;;;;;5013211;28;20352;-50
2022/11/13 11:56:44;;;;;;;;;;;17.40;56.00;;;;;;5013562;28;19913;-49
2022/11/13 11:59:30;;;;;;;;;;;17.10;54.90;;;;;;5017053;28;19991;-49
2022/11/13 12:02:20;;;;;;;;;;;17.10;55.90;;;;;;5023315;28;19913;-48
2022/11/13 12:04:45;;;;;;;;;;;17.20;55.90;;;;;;5010556;28;20370;-47
2022/11/13 12:07:21;;;;;;;;;;;16.90;56.90;;;;;;5010780;28;19909;-49
2022/11/13 12:09:46;;;;;;;;;;;16.80;57.60;;;;;;5023631;28;19964;-48
2022/11/13 12:12:29;;;;;;;;;;;16.40;57.30;;;;;;5010602;28;19925;-49
2022/11/13 12:15:13;;;;;;;;;;;16.00;58.40;;;;;;5015987;28;19918;-55
2022/11/13 12:17:54;;;;;;;;;;;16.00;59.70;;;;;;5010488;28;19918;-46
2022/11/13 12:20:25;;;;;;;;;;;15.60;59.80;;;;;;5010171;28;19916;-47
2022/11/13 12:22:56;;;;;;;;;;;15.80;62.20;;;;;;5011361;28;19914;-49
2022/11/13 12:25:33;;;;;;;;;;;16.00;61.20;;;;;;5024233;28;19914;-46
2022/11/13 12:28:05;;;;;;;;;;;16.00;61.20;;;;;;5010541;28;20008;-49
2022/11/13 12:30:49;;;;;;;;;;;16.10;61.70;;;;;;5010320;28;19910;-51
2022/11/13 12:33:17;;;;;;;;;;;16.20;61.10;;;;;;5010885;28;19917;-49
2022/11/13 12:35:45;;;;;;;;;;;16.60;59.70;;;;;;5013936;28;19918;-50
2022/11/13 12:38:16;;;;;;;;;;;16.30;60.00;;;;;;5010726;28;20238;-47
2022/11/13 12:40:47;;;;;;;;;;;16.30;60.60;;;;;;5010755;28;19909;-46
2022/11/13 12:43:31;;;;;;;;;;;16.50;59.80;;;;;;5010899;28;20051;-49
2022/11/13 12:45:59;;;;;;;;;;;16.30;62.00;;;;;;5010037;28;19975;-50
2022/11/13 12:48:32;;;;;;;;;;;16.40;60.20;;;;;;5009916;28;20328;-50
2022/11/13 12:50:59;;;;;;;;;;;16.40;61.50;;;;;;5010382;28;19913;-48
2022/11/13 12:53:29;;;;;;;;;;;16.50;60.60;;;;;;5010206;28;19944;-49
2022/11/13 12:55:58;;;;;;;;;;;16.20;61.80;;;;;;5010458;28;19965;-47
2022/11/13 12:58:31;;;;;;;;;;;16.40;61.50;;;;;;5021943;28;21143;-47
2022/11/13 13:01:09;;;;;;;;;;;16.20;61.60;;;;;;5010109;28;19917;-49
2022/11/13 13:03:34;;;;;;;;;;;16.30;61.00;;;;;;5017533;28;19963;-49
2022/11/13 13:06:06;;;;;;;;;;;16.60;61.20;;;;;;5029826;28;20268;-50
2022/11/13 13:08:34;;;;;;;;;;;16.40;59.80;;;;;;5029963;28;20396;-54
2022/11/13 13:11:12;;;;;;;;;;;16.20;61.60;;;;;;5029614;28;19924;-50
2022/11/13 13:13:46;;;;;;;;;;;16.30;62.00;;;;;;5029765;28;20574;-49
2022/11/13 13:16:19;;;;;;;;;;;16.40;61.40;;;;;;5029099;28;19909;-49
2022/11/13 13:18:45;;;;;;;;;;;16.10;62.30;;;;;;5023368;28;19914;-52
2022/11/13 13:21:12;;;;;;;;;;;16.10;62.50;;;;;;5009701;28;19916;-53
2022/11/13 13:23:39;;;;;;;;;;;16.20;62.60;;;;;;5009775;28;19913;-51
2022/11/13 13:26:21;;;;;;;;;;;16.10;62.80;;;;;;5009555;28;19956;-52
2022/11/13 13:29:10;;;;;;;;;;;16.00;62.10;;;;;;5013460;28;19967;-47
2022/11/13 13:31:40;;;;;;;;;;;15.90;63.80;;;;;;5012129;28;19928;-49
2022/11/13 13:34:18;;;;;;;;;;;15.90;64.40;;;;;;5022827;28;19914;-48
2022/11/13 13:36:49;;;;;;;;;;;15.90;63.70;;;;;;5014001;28;19919;-51
2022/11/13 13:39:14;;;;;;;;;;;15.90;64.40;;;;;;5013673;28;19917;-50
2022/11/13 13:42:00;;;;;;;;;;;15.40;66.30;;;;;;5014035;28;19917;-48
2022/11/13 13:44:44;;;;;;;;;;;15.20;68.10;;;;;;5008557;28;19917;-54
2022/11/13 13:47:16;;;;;;;;;;;15.10;69.40;;;;;;5013503;28;19960;-50
2022/11/13 13:49:42;;;;;;;;;;;14.90;70.50;;;;;;5013280;28;19941;-51
2022/11/13 13:52:12;;;;;;;;;;;14.90;71.00;;;;;;5013420;28;20376;-49
2022/11/13 13:54:39;;;;;;;;;;;15.00;71.30;;;;;;5013376;28;19948;-48
2022/11/13 13:57:09;;;;;;;;;;;14.80;72.50;;;;;;5015978;28;19920;-50
2022/11/13 13:59:35;;;;;;;;;;;14.80;73.10;;;;;;5014921;28;19917;-47
2022/11/13 14:02:02;;;;;;;;;;;14.70;73.90;;;;;;5018272;28;19920;-48
2022/11/13 14:04:28;;;;;;;;;;;14.80;73.80;;;;;;5013643;28;19918;-50
2022/11/13 14:06:57;;;;;;;;;;;14.30;73.60;;;;;;5013016;28;19918;-48
2022/11/13 14:09:25;;;;;;;;;;;13.80;79.10;;;;;;5013074;28;19983;-53
2022/11/13 14:12:00;;;;;;;;;;;13.80;81.80;;;;;;5012677;28;20238;-52
2022/11/13 14:14:26;;;;;;;;;;;14.00;82.20;;;;;;5013480;28;19997;-49
2022/11/13 14:16:53;;;;;;;;;;;13.80;83.40;;;;;;5018659;28;19910;-48
2022/11/13 14:19:19;;;;;;;;;;;13.60;84.40;;;;;;5013496;28;19917;-49
2022/11/13 14:21:45;;;;;;;;;;;13.40;86.50;;;;;;5012901;28;19914;-49
2022/11/13 14:24:18;;;;;;;;;;;13.00;90.50;;;;;;5014437;28;19909;-49
2022/11/13 14:26:43;;;;;;;;;;;12.90;92.30;;;;;;5020729;28;20372;-49
2022/11/13 14:29:18;;;;;;;;;;;12.80;93.20;;;;;;5032488;28;19919;-50
2022/11/13 14:31:43;;;;;;;;;;;12.60;93.70;;;;;;5032389;28;19909;-50